Time;durP1;ratioP1;P1;durP2;ratioP2;P2;SDS_P1;SDS_P2;PMS_P1;PMS_P2;Temp;Humidity;BMP_temperature;BMP_pressure;BME280_temperature;BME280_humidity;BME280_pressure;Samples;Min_cycle;Max_cycle;Signal;HPM_P1;HPM_P2
2023/12/13 00:02:11;;;;;;;16.73;11.13;;;7.80;99.90;;;;;;5020135;28;20448;-67
2023/12/13 00:04:37;;;;;;;22.02;12.70;;;7.70;99.90;;;;;;5020300;28;20077;-66
2023/12/13 00:07:03;;;;;;;18.40;11.68;;;7.80;99.90;;;;;;5037606;28;20148;-67
2023/12/13 00:09:28;;;;;;;19.85;11.45;;;7.80;99.90;;;;;;5021849;28;20092;-67
2023/12/13 00:11:54;;;;;;;18.20;11.57;;;7.80;99.90;;;;;;5018862;28;20426;-67
2023/12/13 00:14:21;;;;;;;18.50;12.40;;;7.70;99.90;;;;;;5019884;28;20037;-67
2023/12/13 00:16:46;;;;;;;20.13;12.43;;;7.80;99.90;;;;;;5018491;28;20121;-67
2023/12/13 00:19:12;;;;;;;23.90;12.50;;;7.80;99.90;;;;;;5020704;28;20124;-67
2023/12/13 00:21:37;;;;;;;24.25;13.13;;;7.70;99.90;;;;;;5022181;28;20049;-67
2023/12/13 00:24:03;;;;;;;25.70;14.98;;;7.80;99.90;;;;;;5023246;28;20545;-67
2023/12/13 00:26:29;;;;;;;26.35;15.68;;;7.80;99.90;;;;;;5019073;28;20044;-67
2023/12/13 00:28:55;;;;;;;25.33;14.50;;;7.80;99.90;;;;;;5002242;28;20048;-67
2023/12/13 00:31:21;;;;;;;25.40;14.68;;;7.80;99.90;;;;;;5022160;28;20038;-67
2023/12/13 00:33:46;;;;;;;28.00;15.88;;;7.80;99.90;;;;;;5018375;28;20044;-67
2023/12/13 00:36:12;;;;;;;31.05;15.10;;;7.80;99.90;;;;;;5019138;28;20504;-67
2023/12/13 00:38:37;;;;;;;33.05;16.92;;;7.80;99.90;;;;;;5021113;28;20030;-67
2023/12/13 00:41:04;;;;;;;31.70;16.67;;;7.80;99.90;;;;;;5017819;28;20045;-67
2023/12/13 00:43:30;;;;;;;37.45;18.33;;;7.80;99.90;;;;;;5023641;28;20091;-67
2023/12/13 00:45:55;;;;;;;31.48;17.45;;;7.80;99.90;;;;;;5024721;28;20506;-67
2023/12/13 00:48:21;;;;;;;36.20;17.27;;;7.80;99.90;;;;;;5026532;28;20042;-67
2023/12/13 00:50:46;;;;;;;37.50;18.60;;;7.80;99.90;;;;;;5022275;28;20077;-67
2023/12/13 00:53:12;;;;;;;32.67;19.27;;;7.80;99.90;;;;;;5025957;28;20098;-67
2023/12/13 00:55:38;;;;;;;38.15;20.10;;;7.80;99.90;;;;;;5023384;28;20069;-67
2023/12/13 00:58:04;;;;;;;35.38;19.40;;;7.80;99.90;;;;;;5028063;28;20116;-67
2023/12/13 01:00:29;;;;;;;36.67;19.38;;;7.80;99.90;;;;;;5021780;28;20056;-67
2023/12/13 01:02:56;;;;;;;37.33;19.05;;;7.80;99.90;;;;;;5009793;28;20042;-67
2023/12/13 01:05:21;;;;;;;37.92;21.65;;;7.80;99.90;;;;;;5026008;28;20041;-67
2023/12/13 01:07:47;;;;;;;40.15;21.95;;;7.70;99.90;;;;;;5026885;28;20036;-67
2023/12/13 01:10:13;;;;;;;43.47;22.85;;;7.70;99.90;;;;;;5026355;28;20176;-67
2023/12/13 01:12:42;;;;;;;41.35;22.40;;;7.80;99.90;;;;;;5026579;28;20553;-66
2023/12/13 01:15:09;;;;;;;51.00;23.70;;;7.80;99.90;;;;;;5025681;28;20407;-67
2023/12/13 01:17:34;;;;;;;45.17;23.60;;;7.80;99.90;;;;;;5026018;28;20472;-67
2023/12/13 01:20:00;;;;;;;43.97;23.45;;;7.80;99.90;;;;;;5022470;28;20056;-67
2023/12/13 01:22:27;;;;;;;51.13;25.02;;;7.80;99.90;;;;;;5023975;28;20129;-67
2023/12/13 01:24:53;;;;;;;46.92;24.50;;;7.90;99.90;;;;;;5039991;28;20716;-67
2023/12/13 01:27:18;;;;;;;49.53;24.55;;;7.80;99.90;;;;;;5021462;28;20045;-67
2023/12/13 01:29:44;;;;;;;53.13;25.30;;;7.90;99.90;;;;;;5022143;28;20041;-67
2023/12/13 01:32:10;;;;;;;52.05;25.90;;;7.90;99.90;;;;;;5023126;28;20526;-67
2023/12/13 01:34:35;;;;;;;47.67;24.33;;;7.90;99.90;;;;;;5024241;28;20220;-67
2023/12/13 01:37:03;;;;;;;42.55;23.70;;;7.90;99.90;;;;;;5023405;28;20033;-67
2023/12/13 01:39:29;;;;;;;50.55;25.00;;;7.90;99.90;;;;;;5023372;28;20029;-67
2023/12/13 01:41:55;;;;;;;46.28;23.88;;;7.90;99.90;;;;;;5024133;28;20092;-67
2023/12/13 01:44:20;;;;;;;44.58;24.35;;;7.90;99.90;;;;;;5019072;28;20148;-67
2023/12/13 01:46:47;;;;;;;46.03;23.83;;;7.90;99.90;;;;;;5024429;28;20127;-67
2023/12/13 01:49:13;;;;;;;48.65;23.77;;;7.90;99.90;;;;;;5027315;28;20435;-67
2023/12/13 01:51:39;;;;;;;39.47;21.85;;;8.10;99.90;;;;;;5024137;28;20048;-67
2023/12/13 01:54:11;;;;;;;41.42;23.52;;;7.90;99.90;;;;;;5023868;28;20064;-67
2023/12/13 01:56:42;;;;;;;33.80;20.88;;;7.90;99.90;;;;;;5006073;28;20065;-67
2023/12/13 01:59:08;;;;;;;38.70;20.75;;;7.90;99.90;;;;;;5022527;28;20056;-67
2023/12/13 02:01:35;;;;;;;38.63;21.05;;;7.90;99.90;;;;;;5020936;28;20041;-67
2023/12/13 02:04:02;;;;;;;41.08;21.27;;;7.90;99.90;;;;;;5025784;28;20133;-67
2023/12/13 02:06:28;;;;;;;40.25;21.65;;;7.90;99.90;;;;;;5022776;28;20037;-67
2023/12/13 02:08:53;;;;;;;42.75;20.38;;;7.90;99.90;;;;;;5024178;28;20063;-67
2023/12/13 02:11:19;;;;;;;33.75;19.48;;;7.90;99.90;;;;;;5024348;28;20061;-67
2023/12/13 02:13:45;;;;;;;33.58;19.00;;;7.90;99.90;;;;;;5022714;28;20041;-67
2023/12/13 02:16:10;;;;;;;35.03;19.45;;;8.20;99.90;;;;;;5023007;28;20037;-67
2023/12/13 02:18:36;;;;;;;29.67;16.23;;;7.90;99.90;;;;;;5026056;28;20030;-67
2023/12/13 02:21:02;;;;;;;25.55;15.00;;;7.90;99.90;;;;;;5023368;28;20462;-67
2023/12/13 02:23:27;;;;;;;32.10;16.27;;;7.90;99.90;;;;;;5021764;28;20053;-67
2023/12/13 02:25:58;;;;;;;27.17;14.57;;;8.00;99.90;;;;;;5026368;28;20050;-67
2023/12/13 02:28:25;;;;;;;21.45;13.73;;;7.90;99.90;;;;;;5020558;28;20041;-67
2023/12/13 02:30:53;;;;;;;21.58;12.85;;;7.90;99.90;;;;;;5021427;28;20049;-67
2023/12/13 02:33:23;;;;;;;27.75;12.57;;;7.90;99.90;;;;;;5021744;28;20125;-67
2023/12/13 02:35:50;;;;;;;22.17;13.98;;;7.90;99.90;;;;;;5025313;28;20500;-67
2023/12/13 02:38:16;;;;;;;19.40;13.18;;;7.90;99.90;;;;;;5024403;28;20403;-67
2023/12/13 02:40:41;;;;;;;20.45;13.27;;;7.90;99.90;;;;;;5022389;28;20124;-67
2023/12/13 02:43:07;;;;;;;22.77;14.02;;;7.90;99.90;;;;;;5025580;28;20035;-67
2023/12/13 02:45:32;;;;;;;24.17;14.05;;;7.90;99.90;;;;;;5019375;28;20038;-67
2023/12/13 02:47:59;;;;;;;19.20;13.27;;;7.90;99.90;;;;;;5019816;28;20073;-67
2023/12/13 02:50:25;;;;;;;24.48;13.15;;;7.90;99.90;;;;;;5021950;28;20041;-67
2023/12/13 02:52:51;;;;;;;22.00;12.88;;;7.90;99.90;;;;;;5023150;28;20108;-67
2023/12/13 02:55:17;;;;;;;17.48;12.45;;;7.90;99.90;;;;;;5026675;28;20481;-67
2023/12/13 02:57:43;;;;;;;22.63;11.98;;;8.00;99.90;;;;;;5022270;28;20046;-67
2023/12/13 03:00:09;;;;;;;19.52;11.63;;;7.90;99.90;;;;;;5022739;28;20144;-67
2023/12/13 03:02:35;;;;;;;19.92;12.77;;;7.90;99.90;;;;;;5025277;28;20038;-67
2023/12/13 03:05:03;;;;;;;20.92;13.00;;;7.90;99.90;;;;;;5023623;28;20128;-67
2023/12/13 03:07:28;;;;;;;18.08;12.07;;;8.00;99.90;;;;;;5023948;28;20488;-67
2023/12/13 03:09:54;;;;;;;17.90;11.75;;;8.30;99.90;;;;;;5023520;28;20077;-67
2023/12/13 03:12:20;;;;;;;16.40;11.80;;;7.90;99.90;;;;;;5026465;28;20039;-67
2023/12/13 03:14:45;;;;;;;21.50;12.57;;;7.90;99.90;;;;;;5022201;28;20578;-67
2023/12/13 03:17:11;;;;;;;18.42;11.50;;;7.90;99.90;;;;;;5022472;28;20045;-67
2023/12/13 03:19:36;;;;;;;19.23;12.02;;;7.90;99.90;;;;;;5021344;28;20038;-67
2023/12/13 03:22:02;;;;;;;23.25;12.15;;;7.90;99.90;;;;;;5019535;28;20534;-67
2023/12/13 03:24:28;;;;;;;21.10;12.52;;;7.90;99.90;;;;;;5021440;28;20048;-67
2023/12/13 03:26:54;;;;;;;20.15;12.80;;;7.90;99.90;;;;;;5022687;28;20056;-67
2023/12/13 03:29:19;;;;;;;23.73;13.30;;;7.90;99.90;;;;;;5020947;28;20084;-67
2023/12/13 03:31:45;;;;;;;24.25;14.02;;;7.90;99.90;;;;;;5019162;28;20092;-67
2023/12/13 03:34:11;;;;;;;21.33;12.63;;;7.90;99.90;;;;;;5020123;28;20041;-67
2023/12/13 03:36:36;;;;;;;20.15;12.95;;;7.90;99.90;;;;;;5019680;28;20044;-67
2023/12/13 03:39:02;;;;;;;21.25;14.18;;;8.00;99.90;;;;;;5021433;28;20041;-67
2023/12/13 03:41:28;;;;;;;23.40;13.23;;;7.90;99.90;;;;;;5020671;28;20129;-67
2023/12/13 03:43:53;;;;;;;17.23;13.00;;;7.90;99.90;;;;;;5020211;28;20491;-66
2023/12/13 03:46:21;;;;;;;27.23;14.60;;;7.90;99.90;;;;;;5021893;28;20053;-67
2023/12/13 03:48:46;;;;;;;21.88;13.30;;;7.90;99.90;;;;;;5019695;28;20133;-67
2023/12/13 03:51:12;;;;;;;21.02;14.00;;;8.00;99.90;;;;;;5022778;28;20136;-67
2023/12/13 03:53:39;;;;;;;23.98;14.23;;;7.90;99.90;;;;;;5020831;28;20049;-67
2023/12/13 03:56:05;;;;;;;22.30;13.95;;;7.90;99.90;;;;;;5022493;28;20363;-67
2023/12/13 03:58:31;;;;;;;19.77;13.27;;;7.90;99.90;;;;;;5020828;28;20053;-67
2023/12/13 04:00:59;;;;;;;21.02;13.65;;;7.90;99.90;;;;;;5021188;28;20060;-67
2023/12/13 04:03:24;;;;;;;23.00;13.77;;;7.90;99.90;;;;;;5020578;28;20049;-67
2023/12/13 04:05:50;;;;;;;19.95;13.02;;;7.90;99.90;;;;;;5019115;28;20029;-67
2023/12/13 04:08:16;;;;;;;25.48;13.73;;;7.90;99.90;;;;;;5020923;28;20480;-67
2023/12/13 04:10:41;;;;;;;20.23;14.13;;;8.00;99.90;;;;;;5022042;28;20037;-67
2023/12/13 04:13:07;;;;;;;23.13;14.15;;;7.90;99.90;;;;;;5019734;28;20129;-67
2023/12/13 04:15:33;;;;;;;22.63;14.85;;;7.90;99.90;;;;;;5021228;28;20037;-67
2023/12/13 04:17:58;;;;;;;25.23;14.13;;;7.90;99.90;;;;;;5037329;28;20546;-67
2023/12/13 04:20:24;;;;;;;19.60;14.15;;;7.90;99.90;;;;;;5023401;28;20037;-67
2023/12/13 04:22:49;;;;;;;19.80;13.93;;;7.90;99.90;;;;;;5020227;28;20124;-67
2023/12/13 04:25:15;;;;;;;21.95;14.05;;;7.90;99.90;;;;;;5019713;28;20042;-67
2023/12/13 04:27:41;;;;;;;22.30;14.48;;;7.90;99.90;;;;;;5035458;28;20128;-67
2023/12/13 04:30:08;;;;;;;22.77;15.32;;;8.00;99.90;;;;;;5021150;28;20041;-67
2023/12/13 04:32:34;;;;;;;19.73;15.02;;;8.00;99.90;;;;;;5022636;28;20096;-67
2023/12/13 04:34:59;;;;;;;22.15;15.48;;;7.90;99.90;;;;;;5019186;28;20042;-67
2023/12/13 04:37:25;;;;;;;26.10;16.15;;;7.90;99.90;;;;;;5019612;28;20492;-67
2023/12/13 04:39:50;;;;;;;29.42;16.05;;;8.00;99.90;;;;;;5020259;28;20140;-67
2023/12/13 04:42:16;;;;;;;25.73;15.55;;;7.90;99.90;;;;;;5020477;28;20034;-67
2023/12/13 04:44:41;;;;;;;25.42;16.55;;;7.90;99.90;;;;;;5018705;28;20458;-67
2023/12/13 04:47:07;;;;;;;23.25;16.20;;;8.00;99.90;;;;;;5022088;28;20136;-67
2023/12/13 04:49:33;;;;;;;25.92;16.40;;;7.90;99.90;;;;;;5019292;28;20542;-67
2023/12/13 04:51:58;;;;;;;24.48;16.33;;;7.90;99.90;;;;;;5024694;28;20125;-67
2023/12/13 04:54:24;;;;;;;25.48;17.05;;;7.90;99.90;;;;;;5019712;28;20117;-67
2023/12/13 04:56:49;;;;;;;26.85;16.70;;;7.90;99.90;;;;;;5020667;28;20037;-67
2023/12/13 04:59:15;;;;;;;22.88;16.95;;;7.80;99.90;;;;;;5020972;28;20033;-67
2023/12/13 05:01:41;;;;;;;27.50;17.48;;;7.90;99.90;;;;;;5020723;28;20675;-67
2023/12/13 05:04:06;;;;;;;26.40;17.38;;;8.70;99.90;;;;;;5004857;28;20464;-66
2023/12/13 05:06:32;;;;;;;28.70;17.17;;;7.90;99.90;;;;;;5020807;28;20133;-67
2023/12/13 05:08:57;;;;;;;27.73;18.55;;;7.90;99.90;;;;;;5020186;28;20072;-67
2023/12/13 05:11:23;;;;;;;29.92;17.88;;;7.90;99.90;;;;;;5019033;28;20507;-67
2023/12/13 05:13:48;;;;;;;29.10;18.65;;;7.80;99.90;;;;;;5022978;28;20052;-67
2023/12/13 05:16:14;;;;;;;27.55;17.70;;;7.90;99.90;;;;;;5022775;28;20152;-67
2023/12/13 05:18:40;;;;;;;31.45;18.58;;;7.80;99.90;;;;;;5021074;28;20072;-67
2023/12/13 05:21:06;;;;;;;26.17;18.17;;;7.80;99.90;;;;;;5021878;28;20052;-67
2023/12/13 05:23:31;;;;;;;28.90;18.23;;;7.80;99.90;;;;;;5020023;28;20072;-67
2023/12/13 05:25:57;;;;;;;26.30;18.38;;;7.80;99.90;;;;;;5021246;28;20499;-67
2023/12/13 05:28:22;;;;;;;30.83;19.40;;;7.80;99.90;;;;;;5022076;28;20084;-67
2023/12/13 05:30:48;;;;;;;28.50;18.13;;;7.80;99.90;;;;;;5020179;28;20077;-67
2023/12/13 05:33:13;;;;;;;29.58;18.42;;;7.80;99.90;;;;;;5025304;28;20116;-67
2023/12/13 05:35:39;;;;;;;29.33;19.50;;;7.80;99.90;;;;;;5019707;28;20149;-67
2023/12/13 05:38:05;;;;;;;25.73;19.48;;;7.80;99.90;;;;;;5024917;28;20722;-68
2023/12/13 05:40:33;;;;;;;28.48;18.95;;;7.80;99.90;;;;;;5019706;28;20042;-67
2023/12/13 05:43:00;;;;;;;27.95;19.80;;;7.80;99.90;;;;;;5017180;28;20057;-67
2023/12/13 05:45:26;;;;;;;32.00;20.27;;;7.80;99.90;;;;;;5024509;28;20049;-67
2023/12/13 05:47:51;;;;;;;28.60;19.90;;;7.80;99.90;;;;;;5036147;28;20055;-67
2023/12/13 05:50:17;;;;;;;29.80;20.00;;;7.80;99.90;;;;;;5021532;28;20461;-67
2023/12/13 05:52:43;;;;;;;32.83;20.45;;;7.80;99.90;;;;;;5022895;28;20041;-67
2023/12/13 05:55:08;;;;;;;27.98;18.90;;;7.80;99.90;;;;;;5011661;28;20042;-67
2023/12/13 05:57:34;;;;;;;34.15;20.45;;;7.80;99.90;;;;;;5027931;28;20368;-66
2023/12/13 06:00:00;;;;;;;30.08;20.73;;;7.70;99.90;;;;;;5024330;28;20047;-67
2023/12/13 06:02:26;;;;;;;32.08;20.58;;;7.80;99.90;;;;;;5026839;28;20538;-67
2023/12/13 06:04:52;;;;;;;31.50;21.27;;;7.80;99.90;;;;;;5024139;28;20045;-67
2023/12/13 06:07:18;;;;;;;36.67;21.75;;;8.30;99.90;;;;;;5021770;28;20045;-67
2023/12/13 06:09:44;;;;;;;28.58;19.83;;;7.80;99.90;;;;;;5023292;28;20060;-67
2023/12/13 06:12:11;;;;;;;32.47;21.95;;;7.80;99.90;;;;;;5021901;28;20079;-67
2023/12/13 06:14:37;;;;;;;34.30;21.33;;;7.80;99.90;;;;;;5024528;28;20587;-67
2023/12/13 06:17:03;;;;;;;33.75;21.23;;;7.80;99.90;;;;;;5025072;28;20116;-67
2023/12/13 06:19:29;;;;;;;31.38;20.88;;;7.80;99.90;;;;;;5025086;28;20029;-66
2023/12/13 06:21:56;;;;;;;33.20;20.80;;;7.80;99.90;;;;;;5024906;28;20116;-67
2023/12/13 06:24:22;;;;;;;35.95;21.55;;;7.80;99.90;;;;;;5023739;28;20096;-67
2023/12/13 06:26:48;;;;;;;32.38;20.70;;;7.70;99.90;;;;;;5023779;28;20550;-67
2023/12/13 06:29:14;;;;;;;39.05;22.80;;;7.80;99.90;;;;;;5021681;28;20041;-67
2023/12/13 06:31:39;;;;;;;35.75;22.60;;;7.90;99.90;;;;;;5018956;28;20038;-67
2023/12/13 06:34:05;;;;;;;32.90;21.65;;;7.80;99.90;;;;;;5025600;28;20045;-67
2023/12/13 06:36:30;;;;;;;35.70;22.05;;;7.80;99.90;;;;;;5019088;28;20045;-67
2023/12/13 06:38:56;;;;;;;38.83;22.70;;;7.90;99.90;;;;;;5021111;28;20033;-67
2023/12/13 06:41:21;;;;;;;33.88;21.85;;;7.80;99.90;;;;;;5017405;28;20041;-67
2023/12/13 06:43:47;;;;;;;36.15;22.67;;;7.80;99.90;;;;;;5021349;28;20033;-67
2023/12/13 06:46:13;;;;;;;33.45;22.95;;;7.80;99.90;;;;;;5006830;28;20105;-67
2023/12/13 06:48:39;;;;;;;38.50;22.85;;;7.90;99.90;;;;;;5018286;28;20142;-67
2023/12/13 06:51:05;;;;;;;35.95;22.33;;;7.80;99.90;;;;;;5020213;28;20542;-67
2023/12/13 06:53:34;;;;;;;32.47;23.08;;;7.80;99.90;;;;;;5022351;28;20033;-67
2023/12/13 06:55:59;;;;;;;34.60;22.40;;;7.80;99.90;;;;;;5024571;28;20156;-67
2023/12/13 06:58:25;;;;;;;41.08;23.35;;;7.80;99.90;;;;;;5026563;28;20128;-66
2023/12/13 07:00:51;;;;;;;36.00;22.33;;;7.80;99.90;;;;;;5017131;28;20128;-67
2023/12/13 07:03:16;;;;;;;41.38;23.77;;;7.80;99.90;;;;;;5022401;28;20187;-67
2023/12/13 07:05:42;;;;;;;38.95;22.90;;;7.80;99.90;;;;;;5039623;28;20041;-67
2023/12/13 07:08:08;;;;;;;40.95;23.58;;;7.80;99.90;;;;;;5022684;28;20048;-67
2023/12/13 07:10:33;;;;;;;36.10;22.63;;;7.80;99.90;;;;;;5026329;28;20440;-67
2023/12/13 07:12:59;;;;;;;44.85;23.60;;;7.80;99.90;;;;;;5023390;28;20147;-67
2023/12/13 07:15:25;;;;;;;34.38;22.30;;;7.80;99.90;;;;;;5023983;28;20061;-67
2023/12/13 07:17:50;;;;;;;35.60;22.42;;;7.80;99.90;;;;;;5022929;28;21194;-67
2023/12/13 07:20:18;;;;;;;36.35;22.90;;;7.90;99.90;;;;;;5020992;28;20038;-67
2023/12/13 07:22:43;;;;;;;42.20;21.90;;;7.80;99.90;;;;;;5022156;28;20080;-67
2023/12/13 07:25:09;;;;;;;40.17;24.33;;;7.90;99.90;;;;;;5023218;28;20069;-67
2023/12/13 07:27:35;;;;;;;36.50;23.33;;;7.90;99.90;;;;;;5021002;28;20049;-66
2023/12/13 07:30:01;;;;;;;33.33;22.63;;;7.80;99.90;;;;;;5024713;28;20037;-67
2023/12/13 07:32:27;;;;;;;33.85;22.80;;;7.80;99.90;;;;;;5024688;28;20550;-67
2023/12/13 07:34:52;;;;;;;33.40;21.80;;;7.90;99.90;;;;;;5020555;28;20484;-66
2023/12/13 07:37:18;;;;;;;31.63;21.55;;;7.90;99.90;;;;;;5019747;28;20042;-67
2023/12/13 07:39:44;;;;;;;29.75;21.33;;;7.80;99.90;;;;;;5022061;28;20479;-66
2023/12/13 07:42:09;;;;;;;33.85;21.90;;;7.80;99.90;;;;;;5021157;28;20029;-66
2023/12/13 07:44:35;;;;;;;33.78;20.92;;;7.80;99.90;;;;;;5020374;28;20037;-66
2023/12/13 07:47:02;;;;;;;30.77;20.67;;;7.80;99.90;;;;;;5024358;28;20072;-66
2023/12/13 07:49:28;;;;;;;39.30;20.63;;;7.80;99.90;;;;;;5022787;28;20033;-66
2023/12/13 07:51:55;;;;;;;30.40;20.88;;;7.90;99.90;;;;;;5021186;28;20037;-66
2023/12/13 07:54:21;;;;;;;29.85;20.27;;;7.90;99.90;;;;;;5021882;28;20092;-66
2023/12/13 07:56:49;;;;;;;30.65;19.75;;;7.80;99.90;;;;;;5022336;28;20991;-66
2023/12/13 07:59:15;;;;;;;30.92;20.55;;;7.80;99.90;;;;;;5020141;28;20045;-67
2023/12/13 08:01:41;;;;;;;31.38;19.45;;;7.80;99.90;;;;;;5039972;28;20108;-66
2023/12/13 08:04:07;;;;;;;31.73;19.38;;;7.80;99.90;;;;;;5022656;28;20049;-67
2023/12/13 08:06:33;;;;;;;28.90;19.35;;;7.80;99.90;;;;;;5019005;28;20059;-67
2023/12/13 08:08:59;;;;;;;31.67;21.27;;;7.90;99.90;;;;;;5019890;28;20081;-67
2023/12/13 08:11:25;;;;;;;31.55;21.50;;;7.90;99.90;;;;;;5019778;28;20602;-67
2023/12/13 08:13:51;;;;;;;39.20;21.77;;;7.90;99.90;;;;;;5020679;28;20439;-67
2023/12/13 08:16:18;;;;;;;33.67;20.67;;;7.90;99.90;;;;;;5020124;28;20117;-67
2023/12/13 08:18:44;;;;;;;34.33;21.50;;;7.80;99.90;;;;;;5021302;28;20084;-67
2023/12/13 08:21:10;;;;;;;33.10;19.83;;;7.90;99.90;;;;;;5021681;28;20069;-67
2023/12/13 08:23:35;;;;;;;34.03;21.13;;;7.80;99.90;;;;;;5005527;28;20044;-67
2023/12/13 08:26:01;;;;;;;42.13;22.10;;;7.80;99.90;;;;;;5019661;28;20051;-67
2023/12/13 08:28:27;;;;;;;38.22;22.48;;;7.80;99.90;;;;;;5003284;28;20095;-67
2023/12/13 08:30:52;;;;;;;32.38;21.67;;;7.90;99.90;;;;;;5021100;28;20502;-67
2023/12/13 08:33:18;;;;;;;33.58;21.13;;;7.90;99.90;;;;;;5021033;28;20112;-67
2023/12/13 08:35:44;;;;;;;34.65;21.83;;;7.90;99.90;;;;;;5023294;28;20034;-67
2023/12/13 08:38:09;;;;;;;34.80;22.50;;;7.90;99.90;;;;;;5022585;28;20439;-67
2023/12/13 08:40:35;;;;;;;35.05;23.00;;;7.80;99.90;;;;;;5022909;28;20116;-67
2023/12/13 08:43:01;;;;;;;37.67;22.88;;;7.90;99.90;;;;;;5022851;28;20399;-67
2023/12/13 08:45:26;;;;;;;38.47;22.42;;;7.90;99.90;;;;;;5021114;28;20045;-67
2023/12/13 08:47:52;;;;;;;39.40;22.75;;;7.90;99.90;;;;;;5022378;28;20407;-67
2023/12/13 08:50:17;;;;;;;41.97;22.98;;;7.90;99.90;;;;;;5021345;28;20045;-67
2023/12/13 08:52:43;;;;;;;39.72;22.42;;;8.00;99.90;;;;;;5023268;28;20081;-67
2023/12/13 08:55:09;;;;;;;38.35;23.52;;;7.90;99.90;;;;;;5021485;28;20037;-67
2023/12/13 08:57:34;;;;;;;38.28;22.73;;;7.90;99.90;;;;;;5019900;28;20096;-67
2023/12/13 09:00:00;;;;;;;40.10;22.42;;;8.00;99.90;;;;;;5021716;28;20483;-67
2023/12/13 09:02:26;;;;;;;35.50;21.95;;;8.00;99.90;;;;;;5021013;28;20037;-67
2023/12/13 09:04:52;;;;;;;42.30;22.77;;;8.00;99.90;;;;;;5022397;28;20513;-67
2023/12/13 09:07:18;;;;;;;39.35;22.73;;;7.90;99.90;;;;;;5025335;28;20058;-67
2023/12/13 09:09:44;;;;;;;40.45;21.63;;;8.00;99.90;;;;;;5026527;28;20383;-67
2023/12/13 09:12:12;;;;;;;36.35;21.70;;;8.00;99.90;;;;;;5024167;28;20038;-67
2023/12/13 09:14:38;;;;;;;36.10;21.75;;;8.00;99.90;;;;;;5022651;28;20037;-67
2023/12/13 09:17:04;;;;;;;40.80;22.73;;;8.00;99.90;;;;;;5025766;28;21637;-67
2023/12/13 09:19:30;;;;;;;38.60;22.23;;;8.00;99.90;;;;;;5011327;28;20113;-67
2023/12/13 09:21:56;;;;;;;35.30;22.95;;;8.10;99.90;;;;;;5026043;28;20038;-67
2023/12/13 09:24:22;;;;;;;45.35;22.90;;;8.10;99.90;;;;;;5025607;28;20037;-67
2023/12/13 09:26:48;;;;;;;40.03;22.42;;;8.10;99.90;;;;;;5028566;28;20045;-67
2023/12/13 09:29:14;;;;;;;37.08;22.77;;;8.10;99.90;;;;;;5023888;28;20046;-67
2023/12/13 09:31:40;;;;;;;41.70;21.77;;;8.20;99.90;;;;;;5027125;28;20064;-67
2023/12/13 09:34:06;;;;;;;40.85;21.77;;;8.20;99.90;;;;;;5028412;28;20033;-67
2023/12/13 09:36:32;;;;;;;40.78;22.88;;;8.20;99.90;;;;;;5026334;28;20052;-67
2023/12/13 09:38:58;;;;;;;37.10;21.60;;;8.20;99.90;;;;;;5022717;28;20049;-67
2023/12/13 09:41:37;;;;;;;37.10;22.38;;;8.20;99.90;;;;;;5026760;28;20046;-67
2023/12/13 09:44:03;;;;;;;38.03;24.30;;;8.20;99.90;;;;;;5026126;28;20041;-67
2023/12/13 09:46:29;;;;;;;42.28;23.80;;;8.20;99.90;;;;;;5028766;28;20041;-67
2023/12/13 09:48:56;;;;;;;44.13;22.17;;;8.30;99.90;;;;;;5025227;28;20053;-67
2023/12/13 09:51:23;;;;;;;41.83;22.90;;;8.30;99.90;;;;;;5024997;28;20076;-67
2023/12/13 09:53:52;;;;;;;40.38;21.95;;;8.30;99.90;;;;;;5024330;28;20088;-67
2023/12/13 09:56:19;;;;;;;39.13;23.00;;;8.30;99.90;;;;;;5021465;28;20116;-67
2023/12/13 09:58:46;;;;;;;35.63;21.13;;;8.30;99.90;;;;;;5023663;28;20382;-67
2023/12/13 10:01:14;;;;;;;35.58;21.95;;;8.30;99.90;;;;;;5024863;28;20096;-67
2023/12/13 10:03:40;;;;;;;37.13;21.92;;;8.40;99.90;;;;;;5023586;28;20041;-67
2023/12/13 10:06:07;;;;;;;31.15;20.48;;;8.40;99.90;;;;;;5024961;28;20069;-67
2023/12/13 10:08:36;;;;;;;42.85;23.13;;;8.40;99.90;;;;;;5021843;28;20045;-67
2023/12/13 10:11:04;;;;;;;36.25;21.35;;;8.40;99.90;;;;;;5024735;28;20073;-67
2023/12/13 10:13:30;;;;;;;38.03;20.88;;;8.40;99.90;;;;;;5026175;28;20403;-67
2023/12/13 10:15:56;;;;;;;36.30;21.60;;;8.40;99.90;;;;;;5038529;28;20083;-67
2023/12/13 10:18:21;;;;;;;36.78;21.80;;;8.40;99.90;;;;;;5023869;28;20057;-67
2023/12/13 10:20:47;;;;;;;32.65;20.15;;;8.40;99.90;;;;;;5022902;28;20128;-67
2023/12/13 10:23:13;;;;;;;35.72;21.60;;;8.40;99.90;;;;;;5023385;28;20081;-67
2023/12/13 10:25:40;;;;;;;38.83;22.85;;;8.40;99.90;;;;;;5022798;28;20038;-67
2023/12/13 10:28:06;;;;;;;34.67;21.67;;;8.40;99.90;;;;;;5024848;28;20052;-67
2023/12/13 10:30:32;;;;;;;36.63;21.08;;;8.60;99.90;;;;;;5023893;28;20029;-67
2023/12/13 10:32:59;;;;;;;37.05;21.83;;;8.40;99.90;;;;;;5023562;28;20107;-67
2023/12/13 10:35:25;;;;;;;32.40;20.92;;;8.40;99.90;;;;;;5023803;28;20038;-67
2023/12/13 10:37:56;;;;;;;37.22;21.05;;;8.50;99.90;;;;;;5021599;28;20084;-67
2023/12/13 10:40:22;;;;;;;37.88;21.90;;;8.50;99.90;;;;;;5021669;28;20053;-67
2023/12/13 10:42:52;;;;;;;31.08;20.92;;;8.60;99.90;;;;;;5027215;28;20042;-67
2023/12/13 10:45:22;;;;;;;34.70;21.33;;;8.50;99.90;;;;;;5025003;28;20058;-67
2023/12/13 10:47:49;;;;;;;30.90;20.23;;;8.40;99.90;;;;;;5027576;28;20068;-67
2023/12/13 10:50:15;;;;;;;36.60;22.00;;;8.50;99.90;;;;;;5023873;28;20124;-67
2023/12/13 10:52:42;;;;;;;31.98;20.90;;;8.50;99.90;;;;;;5020253;28;21143;-67
2023/12/13 10:55:08;;;;;;;30.75;20.58;;;8.50;99.90;;;;;;5036935;28;20056;-67
2023/12/13 10:57:37;;;;;;;32.13;19.80;;;8.50;99.90;;;;;;5025624;28;20927;-67
2023/12/13 11:00:05;;;;;;;35.20;20.13;;;8.50;99.90;;;;;;5023470;28;20037;-67
2023/12/13 11:02:52;;;;;;;34.28;21.38;;;8.50;99.90;;;;;;5021385;28;20048;-67
2023/12/13 11:05:19;;;;;;;30.13;20.88;;;8.50;99.90;;;;;;5008412;28;20073;-67
2023/12/13 11:07:46;;;;;;;30.98;19.60;;;8.60;99.90;;;;;;5020857;28;20037;-67
2023/12/13 11:10:13;;;;;;;29.42;20.13;;;8.50;99.90;;;;;;5022400;28;20037;-67
2023/12/13 11:12:49;;;;;;;37.45;21.15;;;8.60;99.90;;;;;;5022894;28;20033;-68
2023/12/13 11:15:16;;;;;;;38.00;21.42;;;8.60;99.90;;;;;;5020923;28;20046;-67
2023/12/13 11:17:54;;;;;;;34.67;19.55;;;8.60;99.90;;;;;;5021834;28;20037;-67
2023/12/13 11:20:20;;;;;;;32.25;19.75;;;8.60;99.90;;;;;;5021136;28;20550;-67
2023/12/13 11:22:48;;;;;;;31.27;19.92;;;8.60;99.90;;;;;;5021488;28;20132;-67
2023/12/13 11:25:14;;;;;;;31.05;19.63;;;9.30;99.90;;;;;;5023370;28;20046;-67
2023/12/13 11:27:55;;;;;;;37.45;20.02;;;8.50;99.90;;;;;;5024292;28;20048;-67
2023/12/13 11:30:21;;;;;;;30.55;19.70;;;8.50;99.90;;;;;;5016413;28;20136;-67
2023/12/13 11:32:48;;;;;;;31.02;19.33;;;8.60;99.90;;;;;;5019930;28;20037;-67
2023/12/13 11:35:19;;;;;;;30.23;20.08;;;8.60;99.90;;;;;;5019667;28;20060;-67
2023/12/13 11:37:52;;;;;;;36.03;19.90;;;8.60;99.90;;;;;;5023544;28;20744;-67
2023/12/13 11:40:18;;;;;;;31.73;19.55;;;8.60;99.90;;;;;;5022306;28;20041;-67
2023/12/13 11:42:45;;;;;;;46.10;20.13;;;8.60;99.90;;;;;;5022229;28;20559;-67
2023/12/13 11:45:10;;;;;;;33.00;20.35;;;8.60;99.90;;;;;;5021984;28;20033;-67
2023/12/13 11:47:38;;;;;;;31.27;19.98;;;8.60;99.90;;;;;;5020771;28;20527;-67
2023/12/13 11:50:04;;;;;;;39.40;21.83;;;8.60;99.90;;;;;;5018955;28;20060;-67
2023/12/13 11:52:29;;;;;;;32.85;20.35;;;8.60;99.90;;;;;;5021667;28;20041;-67
2023/12/13 11:54:57;;;;;;;38.58;20.83;;;8.60;99.90;;;;;;5022500;28;20039;-67
2023/12/13 11:57:23;;;;;;;36.90;21.23;;;8.70;99.90;;;;;;5021617;28;20057;-67
2023/12/13 11:59:49;;;;;;;39.25;22.33;;;8.60;99.90;;;;;;5022454;28;20026;-67
2023/12/13 12:02:20;;;;;;;39.50;21.30;;;8.60;99.90;;;;;;5024437;28;20483;-67
2023/12/13 12:04:48;;;;;;;35.20;20.77;;;8.60;99.90;;;;;;5037997;28;20042;-67
2023/12/13 12:07:15;;;;;;;29.70;20.30;;;8.60;99.90;;;;;;5006346;28;20099;-67
2023/12/13 12:09:48;;;;;;;40.72;21.15;;;8.60;99.90;;;;;;5040561;28;20068;-67
2023/12/13 12:12:15;;;;;;;34.40;21.30;;;8.60;99.90;;;;;;5020211;28;20053;-67
2023/12/13 12:14:47;;;;;;;40.75;23.17;;;8.60;99.90;;;;;;5022159;28;20124;-67
2023/12/13 12:17:14;;;;;;;36.13;21.88;;;8.60;99.90;;;;;;5021742;28;20408;-67
2023/12/13 12:19:40;;;;;;;38.17;22.20;;;8.60;99.90;;;;;;5019700;28;20041;-67
2023/12/13 12:22:06;;;;;;;39.97;22.13;;;8.60;99.90;;;;;;5021077;28;20045;-68
2023/12/13 12:24:36;;;;;;;39.45;22.85;;;8.60;99.90;;;;;;5025756;28;20128;-68
2023/12/13 12:27:11;;;;;;;40.13;22.60;;;8.60;99.90;;;;;;5022452;28;20506;-68
2023/12/13 12:29:37;;;;;;;44.42;24.75;;;8.70;99.90;;;;;;5018123;28;20134;-67
2023/12/13 12:32:08;;;;;;;40.15;21.85;;;8.70;99.90;;;;;;5019903;28;20048;-67